sensor_id;sensor_type;location;lat;lon;timestamp;pressure;altitude;pressure_sealevel;temperature;humidity
16451;BME280;12243;42.708;23.310;2022-12-18T00:00:47;95766.13;;;6.23;100.00
16451;BME280;12243;42.708;23.310;2022-12-18T00:03:15;95779.00;;;6.25;100.00
16451;BME280;12243;42.708;23.310;2022-12-18T00:05:48;95780.41;;;6.14;100.00
16451;BME280;12243;42.708;23.310;2022-12-18T00:08:16;95788.72;;;6.19;100.00
16451;BME280;12243;42.708;23.310;2022-12-18T00:10:43;95783.66;;;6.18;100.00
16451;BME280;12243;42.708;23.310;2022-12-18T00:13:11;95787.81;;;6.20;100.00
16451;BME280;12243;42.708;23.310;2022-12-18T00:15:39;95784.81;;;6.12;100.00
16451;BME280;12243;42.708;23.310;2022-12-18T00:18:07;95792.06;;;6.06;100.00
16451;BME280;12243;42.708;23.310;2022-12-18T00:20:36;95794.28;;;5.96;100.00
16451;BME280;12243;42.708;23.310;2022-12-18T00:23:04;95799.66;;;5.93;100.00
16451;BME280;12243;42.708;23.310;2022-12-18T00:25:32;95802.72;;;5.82;100.00
16451;BME280;12243;42.708;23.310;2022-12-18T00:27:59;95796.56;;;5.85;100.00
16451;BME280;12243;42.708;23.310;2022-12-18T00:30:26;95807.84;;;5.84;100.00
16451;BME280;12243;42.708;23.310;2022-12-18T00:32:54;95808.97;;;5.78;100.00
16451;BME280;12243;42.708;23.310;2022-12-18T00:35:24;95809.38;;;5.70;100.00
16451;BME280;12243;42.708;23.310;2022-12-18T00:37:51;95818.63;;;5.74;100.00
16451;BME280;12243;42.708;23.310;2022-12-18T00:40:18;95816.00;;;5.76;100.00
16451;BME280;12243;42.708;23.310;2022-12-18T00:42:45;95813.03;;;5.66;100.00
16451;BME280;12243;42.708;23.310;2022-12-18T00:45:24;95823.69;;;5.60;100.00
16451;BME280;12243;42.708;23.310;2022-12-18T00:47:51;95817.38;;;5.66;100.00
16451;BME280;12243;42.708;23.310;2022-12-18T00:50:18;95816.41;;;5.68;100.00
16451;BME280;12243;42.708;23.310;2022-12-18T00:52:47;95828.84;;;5.60;100.00
16451;BME280;12243;42.708;23.310;2022-12-18T00:55:14;95831.75;;;5.54;100.00
16451;BME280;12243;42.708;23.310;2022-12-18T00:57:41;95837.97;;;5.50;100.00
16451;BME280;12243;42.708;23.310;2022-12-18T01:00:10;95845.13;;;5.45;100.00
16451;BME280;12243;42.708;23.310;2022-12-18T01:02:38;95835.41;;;5.33;100.00
16451;BME280;12243;42.708;23.310;2022-12-18T01:05:07;95841.34;;;5.35;100.00
16451;BME280;12243;42.708;23.310;2022-12-18T01:07:34;95836.31;;;5.32;100.00
16451;BME280;12243;42.708;23.310;2022-12-18T01:10:05;95846.06;;;5.27;100.00
16451;BME280;12243;42.708;23.310;2022-12-18T01:12:34;95838.91;;;5.32;100.00
16451;BME280;12243;42.708;23.310;2022-12-18T01:15:02;95848.63;;;5.27;100.00
16451;BME280;12243;42.708;23.310;2022-12-18T01:17:30;95847.03;;;5.24;100.00
16451;BME280;12243;42.708;23.310;2022-12-18T01:20:00;95853.81;;;5.27;100.00
16451;BME280;12243;42.708;23.310;2022-12-18T01:22:27;95851.03;;;5.30;100.00
16451;BME280;12243;42.708;23.310;2022-12-18T01:24:53;95854.69;;;5.25;100.00
16451;BME280;12243;42.708;23.310;2022-12-18T01:27:25;95861.84;;;5.20;100.00
16451;BME280;12243;42.708;23.310;2022-12-18T01:29:51;95855.00;;;5.19;100.00
16451;BME280;12243;42.708;23.310;2022-12-18T01:32:19;95857.13;;;5.11;100.00
16451;BME280;12243;42.708;23.310;2022-12-18T01:34:46;95855.91;;;5.18;100.00
16451;BME280;12243;42.708;23.310;2022-12-18T01:37:16;95860.69;;;5.26;100.00
16451;BME280;12243;42.708;23.310;2022-12-18T01:39:43;95878.31;;;5.18;100.00
16451;BME280;12243;42.708;23.310;2022-12-18T01:42:12;95884.59;;;5.12;100.00
16451;BME280;12243;42.708;23.310;2022-12-18T01:45:00;95879.13;;;5.01;100.00
16451;BME280;12243;42.708;23.310;2022-12-18T01:47:32;95877.88;;;4.91;100.00
16451;BME280;12243;42.708;23.310;2022-12-18T01:50:05;95878.78;;;4.90;100.00
16451;BME280;12243;42.708;23.310;2022-12-18T01:52:33;95873.63;;;4.90;100.00
16451;BME280;12243;42.708;23.310;2022-12-18T01:55:03;95875.94;;;4.96;100.00
16451;BME280;12243;42.708;23.310;2022-12-18T01:57:32;95880.69;;;4.86;100.00
16451;BME280;12243;42.708;23.310;2022-12-18T02:00:03;95868.75;;;4.84;100.00
16451;BME280;12243;42.708;23.310;2022-12-18T02:02:40;95871.63;;;4.77;100.00
16451;BME280;12243;42.708;23.310;2022-12-18T02:05:09;95879.09;;;4.84;100.00
16451;BME280;12243;42.708;23.310;2022-12-18T02:07:44;95879.09;;;4.84;100.00
16451;BME280;12243;42.708;23.310;2022-12-18T02:10:17;95880.28;;;4.76;100.00
16451;BME280;12243;42.708;23.310;2022-12-18T02:12:53;95886.97;;;4.81;100.00
16451;BME280;12243;42.708;23.310;2022-12-18T02:15:30;95884.53;;;4.77;100.00
16451;BME280;12243;42.708;23.310;2022-12-18T02:18:04;95889.22;;;4.69;100.00
16451;BME280;12243;42.708;23.310;2022-12-18T02:20:36;95901.00;;;4.75;100.00
16451;BME280;12243;42.708;23.310;2022-12-18T02:23:11;95901.97;;;4.72;100.00
16451;BME280;12243;42.708;23.310;2022-12-18T02:26:06;95904.56;;;4.72;100.00
16451;BME280;12243;42.708;23.310;2022-12-18T02:28:41;95905.38;;;4.73;100.00
16451;BME280;12243;42.708;23.310;2022-12-18T02:31:13;95909.84;;;4.69;100.00
16451;BME280;12243;42.708;23.310;2022-12-18T02:33:43;95909.09;;;4.67;100.00
16451;BME280;12243;42.708;23.310;2022-12-18T02:36:12;95913.00;;;4.76;100.00
16451;BME280;12243;42.708;23.310;2022-12-18T02:38:42;95906.59;;;4.85;100.00
16451;BME280;12243;42.708;23.310;2022-12-18T02:41:14;95910.75;;;4.87;100.00
16451;BME280;12243;42.708;23.310;2022-12-18T02:43:49;95915.84;;;4.89;100.00
16451;BME280;12243;42.708;23.310;2022-12-18T02:46:30;95916.91;;;4.85;100.00
16451;BME280;12243;42.708;23.310;2022-12-18T02:49:08;95920.66;;;4.77;100.00
16451;BME280;12243;42.708;23.310;2022-12-18T02:51:44;95914.31;;;4.66;100.00
16451;BME280;12243;42.708;23.310;2022-12-18T02:54:23;95918.72;;;4.64;100.00
16451;BME280;12243;42.708;23.310;2022-12-18T02:56:58;95918.78;;;4.62;100.00
16451;BME280;12243;42.708;23.310;2022-12-18T02:59:34;95918.44;;;4.51;100.00
16451;BME280;12243;42.708;23.310;2022-12-18T03:02:14;95922.19;;;4.44;100.00
16451;BME280;12243;42.708;23.310;2022-12-18T03:04:47;95915.91;;;4.30;100.00
16451;BME280;12243;42.708;23.310;2022-12-18T03:07:20;95899.94;;;4.22;100.00
16451;BME280;12243;42.708;23.310;2022-12-18T03:09:54;95912.97;;;4.19;100.00
16451;BME280;12243;42.708;23.310;2022-12-18T03:12:27;95909.22;;;4.26;100.00
16451;BME280;12243;42.708;23.310;2022-12-18T03:15:00;95922.72;;;4.32;100.00
16451;BME280;12243;42.708;23.310;2022-12-18T03:17:31;95922.72;;;4.32;100.00
16451;BME280;12243;42.708;23.310;2022-12-18T03:20:04;95930.28;;;4.36;100.00
16451;BME280;12243;42.708;23.310;2022-12-18T03:22:35;95931.94;;;4.37;100.00
16451;BME280;12243;42.708;23.310;2022-12-18T03:25:06;95933.59;;;4.38;100.00
16451;BME280;12243;42.708;23.310;2022-12-18T03:27:38;95931.13;;;4.37;100.00
16451;BME280;12243;42.708;23.310;2022-12-18T03:30:12;95943.78;;;4.41;100.00
16451;BME280;12243;42.708;23.310;2022-12-18T03:32:42;95949.66;;;4.45;100.00
16451;BME280;12243;42.708;23.310;2022-12-18T03:35:13;95943.00;;;4.39;100.00
16451;BME280;12243;42.708;23.310;2022-12-18T03:37:41;95953.06;;;4.45;100.00
16451;BME280;12243;42.708;23.310;2022-12-18T03:40:10;95964.91;;;4.49;100.00
16451;BME280;12243;42.708;23.310;2022-12-18T03:42:44;95964.16;;;4.47;100.00
16451;BME280;12243;42.708;23.310;2022-12-18T03:45:20;95964.38;;;4.43;100.00
16451;BME280;12243;42.708;23.310;2022-12-18T03:47:57;95967.44;;;4.51;100.00
16451;BME280;12243;42.708;23.310;2022-12-18T03:50:34;95987.16;;;4.52;100.00
16451;BME280;12243;42.708;23.310;2022-12-18T03:53:10;95983.13;;;4.46;100.00
16451;BME280;12243;42.708;23.310;2022-12-18T03:55:41;95981.84;;;4.36;100.00
16451;BME280;12243;42.708;23.310;2022-12-18T03:58:14;95976.13;;;4.29;100.00
16451;BME280;12243;42.708;23.310;2022-12-18T04:00:58;95982.84;;;4.13;100.00
16451;BME280;12243;42.708;23.310;2022-12-18T04:03:28;95971.47;;;4.17;100.00
16451;BME280;12243;42.708;23.310;2022-12-18T04:05:57;95976.72;;;4.16;100.00
16451;BME280;12243;42.708;23.310;2022-12-18T04:08:27;95986.19;;;4.15;100.00
16451;BME280;12243;42.708;23.310;2022-12-18T04:11:06;95989.66;;;4.14;100.00
16451;BME280;12243;42.708;23.310;2022-12-18T04:13:36;95990.56;;;4.13;100.00
16451;BME280;12243;42.708;23.310;2022-12-18T04:16:07;95995.72;;;4.13;100.00
16451;BME280;12243;42.708;23.310;2022-12-18T04:18:39;95999.34;;;4.09;100.00
16451;BME280;12243;42.708;23.310;2022-12-18T04:21:05;96004.41;;;4.11;100.00
16451;BME280;12243;42.708;23.310;2022-12-18T04:23:32;96015.72;;;4.08;100.00
16451;BME280;12243;42.708;23.310;2022-12-18T04:26:00;96022.22;;;4.17;100.00
16451;BME280;12243;42.708;23.310;2022-12-18T04:28:44;96025.25;;;4.06;100.00
16451;BME280;12243;42.708;23.310;2022-12-18T04:31:12;96028.31;;;4.14;100.00
16451;BME280;12243;42.708;23.310;2022-12-18T04:33:39;96027.25;;;4.20;100.00
16451;BME280;12243;42.708;23.310;2022-12-18T04:36:07;96028.59;;;4.08;100.00
16451;BME280;12243;42.708;23.310;2022-12-18T04:38:34;96038.91;;;4.08;100.00
16451;BME280;12243;42.708;23.310;2022-12-18T04:41:06;96034.63;;;4.07;100.00
16451;BME280;12243;42.708;23.310;2022-12-18T04:43:34;96039.53;;;3.93;100.00
16451;BME280;12243;42.708;23.310;2022-12-18T04:46:03;96046.75;;;3.85;100.00
16451;BME280;12243;42.708;23.310;2022-12-18T04:48:30;96053.31;;;3.92;100.00
16451;BME280;12243;42.708;23.310;2022-12-18T04:50:57;96043.00;;;3.92;100.00
16451;BME280;12243;42.708;23.310;2022-12-18T04:53:24;96056.81;;;3.91;100.00
16451;BME280;12243;42.708;23.310;2022-12-18T04:56:02;96058.34;;;3.95;100.00
16451;BME280;12243;42.708;23.310;2022-12-18T04:58:29;96063.50;;;3.95;100.00
16451;BME280;12243;42.708;23.310;2022-12-18T05:00:56;96067.22;;;3.88;100.00
16451;BME280;12243;42.708;23.310;2022-12-18T05:03:26;96064.81;;;3.83;100.00
16451;BME280;12243;42.708;23.310;2022-12-18T05:05:53;96069.94;;;3.85;100.00
16451;BME280;12243;42.708;23.310;2022-12-18T05:08:20;96071.56;;;3.87;100.00
16451;BME280;12243;42.708;23.310;2022-12-18T05:10:47;96076.72;;;3.87;100.00
16451;BME280;12243;42.708;23.310;2022-12-18T05:13:14;96082.94;;;3.81;100.00
16451;BME280;12243;42.708;23.310;2022-12-18T05:15:40;96088.69;;;3.88;100.00
16451;BME280;12243;42.708;23.310;2022-12-18T05:18:08;96094.66;;;3.89;100.00
16451;BME280;12243;42.708;23.310;2022-12-18T05:20:36;96098.97;;;3.88;100.00
16451;BME280;12243;42.708;23.310;2022-12-18T05:23:03;96105.09;;;3.86;100.00
16451;BME280;12243;42.708;23.310;2022-12-18T05:25:30;96106.75;;;3.87;100.00
16451;BME280;12243;42.708;23.310;2022-12-18T05:27:57;96103.19;;;3.91;100.00
16451;BME280;12243;42.708;23.310;2022-12-18T05:30:24;96109.19;;;3.91;100.00
16451;BME280;12243;42.708;23.310;2022-12-18T05:32:50;96115.75;;;3.76;100.00
16451;BME280;12243;42.708;23.310;2022-12-18T05:35:17;96111.47;;;3.77;100.00
16451;BME280;12243;42.708;23.310;2022-12-18T05:37:46;96115.69;;;3.78;100.00
16451;BME280;12243;42.708;23.310;2022-12-18T05:40:12;96126.91;;;3.77;100.00
16451;BME280;12243;42.708;23.310;2022-12-18T05:42:39;96118.28;;;3.78;100.00
16451;BME280;12243;42.708;23.310;2022-12-18T05:45:07;96126.19;;;3.73;100.00
16451;BME280;12243;42.708;23.310;2022-12-18T05:47:34;96137.69;;;3.65;100.00
16451;BME280;12243;42.708;23.310;2022-12-18T05:50:01;96141.28;;;3.61;100.00
16451;BME280;12243;42.708;23.310;2022-12-18T05:52:28;96137.06;;;3.58;100.00
16451;BME280;12243;42.708;23.310;2022-12-18T05:54:56;96130.13;;;3.60;100.00
16451;BME280;12243;42.708;23.310;2022-12-18T05:57:24;96142.22;;;3.58;100.00
16451;BME280;12243;42.708;23.310;2022-12-18T05:59:51;96147.38;;;3.58;100.00
16451;BME280;12243;42.708;23.310;2022-12-18T06:02:18;96149.94;;;3.58;100.00
16451;BME280;12243;42.708;23.310;2022-12-18T06:04:46;96163.03;;;3.52;100.00
16451;BME280;12243;42.708;23.310;2022-12-18T06:07:13;96161.25;;;3.54;100.00
16451;BME280;12243;42.708;23.310;2022-12-18T06:09:40;96159.59;;;3.53;100.00
16451;BME280;12243;42.708;23.310;2022-12-18T06:12:08;96158.59;;;3.57;100.00
16451;BME280;12243;42.708;23.310;2022-12-18T06:14:36;96152.41;;;3.61;100.00
16451;BME280;12243;42.708;23.310;2022-12-18T06:17:02;96159.22;;;3.62;100.00
16451;BME280;12243;42.708;23.310;2022-12-18T06:19:29;96163.78;;;3.55;100.00
16451;BME280;12243;42.708;23.310;2022-12-18T06:21:56;96157.91;;;3.52;100.00
16451;BME280;12243;42.708;23.310;2022-12-18T06:24:24;96158.63;;;3.55;100.00
16451;BME280;12243;42.708;23.310;2022-12-18T06:26:51;96163.72;;;3.57;100.00
16451;BME280;12243;42.708;23.310;2022-12-18T06:29:19;96165.97;;;3.66;100.00
16451;BME280;12243;42.708;23.310;2022-12-18T06:31:46;96172.22;;;3.59;100.00
16451;BME280;12243;42.708;23.310;2022-12-18T06:34:13;96167.06;;;3.59;100.00
16451;BME280;12243;42.708;23.310;2022-12-18T06:36:40;96171.16;;;3.65;100.00
16451;BME280;12243;42.708;23.310;2022-12-18T06:39:07;96173.25;;;3.55;100.00
16451;BME280;12243;42.708;23.310;2022-12-18T06:41:34;96185.91;;;3.61;100.00
16451;BME280;12243;42.708;23.310;2022-12-18T06:44:00;96194.41;;;3.63;99.86
16451;BME280;12243;42.708;23.310;2022-12-18T06:46:29;96196.28;;;3.60;99.00
16451;BME280;12243;42.708;23.310;2022-12-18T06:48:57;96188.59;;;3.58;98.20
16451;BME280;12243;42.708;23.310;2022-12-18T06:51:24;96197.81;;;3.64;98.44
16451;BME280;12243;42.708;23.310;2022-12-18T06:53:51;96195.88;;;3.70;97.77
16451;BME280;12243;42.708;23.310;2022-12-18T06:56:18;96208.25;;;3.61;97.31
16451;BME280;12243;42.708;23.310;2022-12-18T06:58:45;96201.91;;;3.69;97.24
16451;BME280;12243;42.708;23.310;2022-12-18T07:01:12;96204.47;;;3.69;96.68
16451;BME280;12243;42.708;23.310;2022-12-18T07:03:41;96198.44;;;3.70;95.84
16451;BME280;12243;42.708;23.310;2022-12-18T07:06:13;96206.22;;;3.69;95.93
16451;BME280;12243;42.708;23.310;2022-12-18T07:08:40;96206.38;;;3.64;95.48
16451;BME280;12243;42.708;23.310;2022-12-18T07:11:07;96208.63;;;3.73;96.33
16451;BME280;12243;42.708;23.310;2022-12-18T07:13:34;96213.78;;;3.73;96.73
16451;BME280;12243;42.708;23.310;2022-12-18T07:16:06;96215.69;;;3.68;96.88
16451;BME280;12243;42.708;23.310;2022-12-18T07:18:33;96214.84;;;3.68;97.34
16451;BME280;12243;42.708;23.310;2022-12-18T07:21:04;96220.19;;;3.63;97.69
16451;BME280;12243;42.708;23.310;2022-12-18T07:23:31;96217.59;;;3.63;98.11
16451;BME280;12243;42.708;23.310;2022-12-18T07:26:01;96222.69;;;3.65;98.44
16451;BME280;12243;42.708;23.310;2022-12-18T07:28:28;96226.19;;;3.62;98.11
16451;BME280;12243;42.708;23.310;2022-12-18T07:30:55;96226.19;;;3.62;98.92
16451;BME280;12243;42.708;23.310;2022-12-18T07:33:21;96238.41;;;3.57;98.57
16451;BME280;12243;42.708;23.310;2022-12-18T07:35:48;96230.16;;;3.49;99.10
16451;BME280;12243;42.708;23.310;2022-12-18T07:38:17;96230.25;;;3.46;99.17
16451;BME280;12243;42.708;23.310;2022-12-18T07:40:44;96232.75;;;3.47;99.58
16451;BME280;12243;42.708;23.310;2022-12-18T07:43:11;96236.97;;;3.50;99.42
16451;BME280;12243;42.708;23.310;2022-12-18T07:45:37;96237.59;;;3.56;100.00
16451;BME280;12243;42.708;23.310;2022-12-18T07:48:04;96236.75;;;3.56;99.85
16451;BME280;12243;42.708;23.310;2022-12-18T07:50:31;96234.09;;;3.57;99.90
16451;BME280;12243;42.708;23.310;2022-12-18T07:52:58;96242.56;;;3.61;100.00
16451;BME280;12243;42.708;23.310;2022-12-18T07:55:30;96244.91;;;3.67;100.00
16451;BME280;12243;42.708;23.310;2022-12-18T07:57:57;96250.97;;;3.66;100.00
16451;BME280;12243;42.708;23.310;2022-12-18T08:00:26;96251.03;;;3.65;99.94
16451;BME280;12243;42.708;23.310;2022-12-18T08:02:53;96258.56;;;3.69;100.00
16451;BME280;12243;42.708;23.310;2022-12-18T08:05:20;96267.09;;;3.71;100.00
16451;BME280;12243;42.708;23.310;2022-12-18T08:07:47;96263.63;;;3.72;100.00
16451;BME280;12243;42.708;23.310;2022-12-18T08:10:15;96269.59;;;3.73;99.97
16451;BME280;12243;42.708;23.310;2022-12-18T08:12:43;96263.41;;;3.78;100.00
16451;BME280;12243;42.708;23.310;2022-12-18T08:15:10;96277.41;;;3.71;99.58
16451;BME280;12243;42.708;23.310;2022-12-18T08:17:37;96269.03;;;3.65;100.00
16451;BME280;12243;42.708;23.310;2022-12-18T08:20:05;96278.63;;;3.61;99.31
16451;BME280;12243;42.708;23.310;2022-12-18T08:22:33;96291.41;;;3.64;99.54
16451;BME280;12243;42.708;23.310;2022-12-18T08:25:03;96295.66;;;3.65;99.91
16451;BME280;12243;42.708;23.310;2022-12-18T08:27:30;96289.25;;;3.75;98.56
16451;BME280;12243;42.708;23.310;2022-12-18T08:30:00;96297.09;;;3.72;97.56
16451;BME280;12243;42.708;23.310;2022-12-18T08:32:28;96300.69;;;3.68;97.48
16451;BME280;12243;42.708;23.310;2022-12-18T08:34:54;96303.06;;;3.74;97.58
16451;BME280;12243;42.708;23.310;2022-12-18T08:37:21;96307.03;;;3.83;97.35
16451;BME280;12243;42.708;23.310;2022-12-18T08:39:48;96295.88;;;3.82;96.52
16451;BME280;12243;42.708;23.310;2022-12-18T08:42:16;96318.94;;;3.87;95.26
16451;BME280;12243;42.708;23.310;2022-12-18T08:45:02;96302.94;;;3.77;95.67
16451;BME280;12243;42.708;23.310;2022-12-18T08:47:29;96302.94;;;3.77;95.23
16451;BME280;12243;42.708;23.310;2022-12-18T08:49:56;96308.38;;;3.93;95.66
16451;BME280;12243;42.708;23.310;2022-12-18T08:52:23;96316.22;;;3.90;94.47
16451;BME280;12243;42.708;23.310;2022-12-18T08:54:50;96314.03;;;4.03;95.32
16451;BME280;12243;42.708;23.310;2022-12-18T08:57:16;96309.44;;;4.11;92.91
16451;BME280;12243;42.708;23.310;2022-12-18T08:59:43;96307.75;;;4.10;92.46
16451;BME280;12243;42.708;23.310;2022-12-18T09:02:11;96305.06;;;4.13;92.81
16451;BME280;12243;42.708;23.310;2022-12-18T09:04:38;96316.28;;;4.12;92.48
16451;BME280;12243;42.708;23.310;2022-12-18T09:07:06;96311.34;;;4.06;92.86
16451;BME280;12243;42.708;23.310;2022-12-18T09:09:32;96306.63;;;4.17;91.56
16451;BME280;12243;42.708;23.310;2022-12-18T09:11:59;96309.69;;;4.27;91.36
16451;BME280;12243;42.708;23.310;2022-12-18T09:14:26;96311.22;;;4.33;90.97
16451;BME280;12243;42.708;23.310;2022-12-18T09:16:53;96310.44;;;4.30;90.56
16451;BME280;12243;42.708;23.310;2022-12-18T09:19:21;96311.75;;;4.41;89.80
16451;BME280;12243;42.708;23.310;2022-12-18T09:21:48;96314.03;;;4.48;89.41
16451;BME280;12243;42.708;23.310;2022-12-18T09:24:15;96306.66;;;4.39;88.50
16451;BME280;12243;42.708;23.310;2022-12-18T09:26:43;96304.13;;;4.38;88.32
16451;BME280;12243;42.708;23.310;2022-12-18T09:29:10;96311.94;;;4.36;87.83
16451;BME280;12243;42.708;23.310;2022-12-18T09:31:38;96310.72;;;4.23;88.00
16451;BME280;12243;42.708;23.310;2022-12-18T09:34:05;96304.94;;;4.16;88.50
16451;BME280;12243;42.708;23.310;2022-12-18T09:36:34;96309.28;;;4.16;89.74
16451;BME280;12243;42.708;23.310;2022-12-18T09:39:01;96311.44;;;4.26;89.68
16451;BME280;12243;42.708;23.310;2022-12-18T09:41:40;96311.75;;;4.41;89.27
16451;BME280;12243;42.708;23.310;2022-12-18T09:44:15;96311.41;;;4.50;89.31
16451;BME280;12243;42.708;23.310;2022-12-18T09:46:45;96314.94;;;4.69;88.10
16451;BME280;12243;42.708;23.310;2022-12-18T09:49:16;96316.25;;;4.80;88.44
16451;BME280;12243;42.708;23.310;2022-12-18T09:51:49;96310.84;;;4.86;87.35
16451;BME280;12243;42.708;23.310;2022-12-18T09:54:22;96314.59;;;4.78;85.36
16451;BME280;12243;42.708;23.310;2022-12-18T09:56:50;96317.22;;;4.77;85.77
16451;BME280;12243;42.708;23.310;2022-12-18T09:59:22;96309.53;;;4.75;85.43
16451;BME280;12243;42.708;23.310;2022-12-18T10:01:50;96308.22;;;4.65;85.31
16451;BME280;12243;42.708;23.310;2022-12-18T10:04:18;96302.84;;;4.71;85.08
16451;BME280;12243;42.708;23.310;2022-12-18T10:06:50;96298.72;;;4.88;85.78
16451;BME280;12243;42.708;23.310;2022-12-18T10:09:26;96303.75;;;4.91;84.99
16451;BME280;12243;42.708;23.310;2022-12-18T10:12:00;96309.06;;;5.08;86.06
16451;BME280;12243;42.708;23.310;2022-12-18T10:14:35;96304.75;;;5.09;83.66
16451;BME280;12243;42.708;23.310;2022-12-18T10:17:11;96312.28;;;4.93;84.77
16451;BME280;12243;42.708;23.310;2022-12-18T10:19:43;96306.22;;;4.94;85.31
16451;BME280;12243;42.708;23.310;2022-12-18T10:22:26;96310.84;;;4.86;84.50
16451;BME280;12243;42.708;23.310;2022-12-18T10:25:00;96314.63;;;4.99;84.55
16451;BME280;12243;42.708;23.310;2022-12-18T10:27:30;96315.97;;;5.08;84.52
16451;BME280;12243;42.708;23.310;2022-12-18T10:29:58;96315.16;;;5.07;83.25
16451;BME280;12243;42.708;23.310;2022-12-18T10:32:27;96311.66;;;5.08;84.97
16451;BME280;12243;42.708;23.310;2022-12-18T10:34:56;96312.84;;;5.21;84.22
16451;BME280;12243;42.708;23.310;2022-12-18T10:37:26;96313.09;;;5.36;84.10
16451;BME280;12243;42.708;23.310;2022-12-18T10:40:08;96313.81;;;5.39;82.95
16451;BME280;12243;42.708;23.310;2022-12-18T10:42:36;96310.25;;;5.42;83.93
16451;BME280;12243;42.708;23.310;2022-12-18T10:45:07;96310.38;;;5.39;82.72
16451;BME280;12243;42.708;23.310;2022-12-18T10:47:35;96313.22;;;5.12;82.67
16451;BME280;12243;42.708;23.310;2022-12-18T10:50:03;96306.25;;;5.14;84.60
16451;BME280;12243;42.708;23.310;2022-12-18T10:52:31;96308.59;;;5.20;84.34
16451;BME280;12243;42.708;23.310;2022-12-18T10:55:03;96310.13;;;5.24;83.43
16451;BME280;12243;42.708;23.310;2022-12-18T10:57:33;96306.78;;;5.43;83.86
16451;BME280;12243;42.708;23.310;2022-12-18T11:00:23;96303.00;;;5.50;83.41
16451;BME280;12243;42.708;23.310;2022-12-18T11:02:50;96306.91;;;5.40;82.87
16451;BME280;12243;42.708;23.310;2022-12-18T11:05:26;96295.47;;;5.45;83.63
16451;BME280;12243;42.708;23.310;2022-12-18T11:07:56;96302.84;;;5.55;82.27
16451;BME280;12243;42.708;23.310;2022-12-18T11:10:28;96314.13;;;5.52;80.92
16451;BME280;12243;42.708;23.310;2022-12-18T11:13:09;96310.50;;;5.36;81.20
16451;BME280;12243;42.708;23.310;2022-12-18T11:15:40;96303.84;;;5.50;81.40
16451;BME280;12243;42.708;23.310;2022-12-18T11:18:16;96303.94;;;5.49;81.60
16451;BME280;12243;42.708;23.310;2022-12-18T11:20:51;96307.22;;;5.53;81.96
16451;BME280;12243;42.708;23.310;2022-12-18T11:23:22;96302.63;;;5.59;81.59
16451;BME280;12243;42.708;23.310;2022-12-18T11:25:52;96312.00;;;5.62;81.95
16451;BME280;12243;42.708;23.310;2022-12-18T11:28:29;96309.72;;;5.54;81.42
16451;BME280;12243;42.708;23.310;2022-12-18T11:31:25;96316.19;;;5.64;81.26
16451;BME280;12243;42.708;23.310;2022-12-18T11:33:59;96308.38;;;5.66;82.36
16451;BME280;12243;42.708;23.310;2022-12-18T11:36:31;96321.53;;;5.80;80.38
16451;BME280;12243;42.708;23.310;2022-12-18T11:39:08;96314.38;;;5.66;81.19
16451;BME280;12243;42.708;23.310;2022-12-18T11:41:42;96307.41;;;5.68;82.09
16451;BME280;12243;42.708;23.310;2022-12-18T11:44:33;96307.81;;;5.59;80.36
16451;BME280;12243;42.708;23.310;2022-12-18T11:47:07;96309.47;;;5.60;80.09
16451;BME280;12243;42.708;23.310;2022-12-18T11:49:36;96303.72;;;5.54;81.65
16451;BME280;12243;42.708;23.310;2022-12-18T11:52:12;96305.59;;;5.50;81.13
16451;BME280;12243;42.708;23.310;2022-12-18T11:54:43;96309.34;;;5.43;81.32
16451;BME280;12243;42.708;23.310;2022-12-18T11:57:16;96312.34;;;5.34;80.83
16451;BME280;12243;42.708;23.310;2022-12-18T11:59:52;96312.59;;;5.28;81.87
16451;BME280;12243;42.708;23.310;2022-12-18T12:02:33;96311.47;;;5.33;82.73
16451;BME280;12243;42.708;23.310;2022-12-18T12:05:25;96301.81;;;5.38;82.07
16451;BME280;12243;42.708;23.310;2022-12-18T12:08:00;96305.44;;;5.34;82.24
16451;BME280;12243;42.708;23.310;2022-12-18T12:10:39;96308.13;;;5.31;82.94
16451;BME280;12243;42.708;23.310;2022-12-18T12:13:23;96308.97;;;5.32;83.47
16451;BME280;12243;42.708;23.310;2022-12-18T12:16:01;96301.84;;;5.37;82.70
16451;BME280;12243;42.708;23.310;2022-12-18T12:18:49;96295.13;;;5.33;83.22
16451;BME280;12243;42.708;23.310;2022-12-18T12:21:23;96312.72;;;5.24;82.38
16451;BME280;12243;42.708;23.310;2022-12-18T12:23:58;96307.44;;;5.28;83.25
16451;BME280;12243;42.708;23.310;2022-12-18T12:26:34;96312.25;;;5.35;82.95
16451;BME280;12243;42.708;23.310;2022-12-18T12:29:14;96303.81;;;5.32;82.60
16451;BME280;12243;42.708;23.310;2022-12-18T12:31:54;96314.72;;;5.38;83.13
16451;BME280;12243;42.708;23.310;2022-12-18T12:34:30;96316.00;;;5.48;81.80
16451;BME280;12243;42.708;23.310;2022-12-18T12:37:11;96319.06;;;5.38;82.45
16451;BME280;12243;42.708;23.310;2022-12-18T12:39:44;96321.88;;;5.32;83.68
16451;BME280;12243;42.708;23.310;2022-12-18T12:42:18;96314.84;;;5.35;82.86
16451;BME280;12243;42.708;23.310;2022-12-18T12:45:06;96308.47;;;5.44;83.60
16451;BME280;12243;42.708;23.310;2022-12-18T12:47:42;96311.31;;;5.38;83.62
16451;BME280;12243;42.708;23.310;2022-12-18T12:50:15;96313.34;;;5.30;83.57
16451;BME280;12243;42.708;23.310;2022-12-18T12:52:45;96320.66;;;5.40;83.59
16451;BME280;12243;42.708;23.310;2022-12-18T12:55:16;96317.81;;;5.46;83.53
16451;BME280;12243;42.708;23.310;2022-12-18T12:57:54;96327.38;;;5.44;82.66
16451;BME280;12243;42.708;23.310;2022-12-18T13:00:22;96321.50;;;5.20;82.69
16451;BME280;12243;42.708;23.310;2022-12-18T13:02:55;96328.78;;;5.11;81.94
16451;BME280;12243;42.708;23.310;2022-12-18T13:05:26;96328.19;;;5.04;82.49
16451;BME280;12243;42.708;23.310;2022-12-18T13:07:57;96334.97;;;5.07;83.39
16451;BME280;12243;42.708;23.310;2022-12-18T13:10:31;96327.69;;;5.16;82.77
16451;BME280;12243;42.708;23.310;2022-12-18T13:13:02;96335.75;;;5.29;82.93